This is the latest recevied weather packets stored in our database for station/object KE8TTQ-1. If no packets are shown the sender has not sent any weather packets the latest 10 day(s).
| Time | Temp. | Humidity | Pressure | Rain* | Wind** | Luminosity | Snow |
|---|---|---|---|---|---|---|---|
| 1778004868 | 22.22° C | 64% | 1010.8 hPa | - | - | - | - |
| 1778003668 | 22.78° C | 61% | 1010.8 hPa | - | - | - | - |
| 1778000067 | 23.33° C | 62% | 1011.1 hPa | - | - | - | - |
| 1777983267 | 20° C | 81% | 1010.8 hPa | - | - | - | - |
| 1777980867 | 18.33° C | 91% | 1011.1 hPa | - | - | - | - |
| 1777973666 | 17.22° C | 93% | 1010.1 hPa | - | - | - | - |
| 1777972466 | 17.22° C | 89% | 1009.8 hPa | - | - | - | - |
| 1777970066 | 17.78° C | 84% | 1009.1 hPa | - | - | - | - |
| 1777960466 | 18.89° C | 77% | 1008.8 hPa | - | - | - | - |
| 1777959265 | 18.89° C | 76% | 1008.8 hPa | - | - | - | - |
| 1777958065 | 19.44° C | 75% | 1009.1 hPa | - | - | - | - |
| 1777956866 | 19.44° C | 74% | 1009.1 hPa | - | - | - | - |
| 1777955665 | 19.44° C | 75% | 1009.1 hPa | - | - | - | - |
| 1777953265 | 19.44° C | 73% | 1008.8 hPa | - | - | - | - |
| 1777952065 | 19.44° C | 72% | 1008.8 hPa | - | - | - | - |
| 1777950865 | 19.44° C | 71% | 1008.8 hPa | - | - | - | - |
| 1777949665 | 20° C | 67% | 1008.4 hPa | - | - | - | - |
| 1777947265 | 20.56° C | 64% | 1008.1 hPa | - | - | - | - |
| 1777946065 | 20.56° C | 61% | 1007.7 hPa | - | - | - | - |
| 1777943665 | 21.11° C | 57% | 1007.4 hPa | - | - | - | - |
| 1777941264 | 22.22° C | 54% | 1007.4 hPa | - | - | - | - |
| 1777938865 | 22.78° C | 50% | 1007.7 hPa | - | - | - | - |
| 1777937665 | 23.89° C | 48% | 1008.1 hPa | - | - | - | - |
| 1777934065 | 25° C | 49% | 1008.4 hPa | - | - | - | - |
| 1777932864 | 24.44° C | 51% | 1008.4 hPa | - | - | - | - |
* Rain since midnight (hover to see other rain measurements)
** Current wind speed in m/s (hover to see current wind gust speed)